createdAt,value
2023-04-16T00:03:11.709Z,12.70
2023-04-16T00:09:14.181Z,12.70
2023-04-16T00:15:16.815Z,12.60
2023-04-16T00:21:19.274Z,12.50
2023-04-16T00:27:21.897Z,12.40
2023-04-16T00:33:24.476Z,12.40
2023-04-16T00:39:26.990Z,12.30
2023-04-16T00:45:29.568Z,12.20
2023-04-16T00:51:32.302Z,12.10
2023-04-16T00:57:34.561Z,12.00
2023-04-16T01:03:48.035Z,11.90
2023-04-16T01:09:53.055Z,11.70
2023-04-16T01:15:55.614Z,11.60
2023-04-16T01:21:59.106Z,11.50
2023-04-16T01:28:01.605Z,11.40
2023-04-16T01:34:04.428Z,11.10
2023-04-16T01:40:08.022Z,11.00
2023-04-16T01:46:21.373Z,10.90
2023-04-16T01:52:23.926Z,10.80
2023-04-16T01:58:28.334Z,10.70
2023-04-16T02:04:31.152Z,10.60
2023-04-16T02:10:33.741Z,10.60
2023-04-16T02:16:36.689Z,10.50
2023-04-16T02:22:56.855Z,10.40
2023-04-16T02:29:00.166Z,10.40
2023-04-16T02:35:11.259Z,10.40
2023-04-16T02:41:14.400Z,10.40
2023-04-16T02:47:16.745Z,10.30
2023-04-16T02:53:19.388Z,10.30
2023-04-16T02:59:21.834Z,10.10
2023-04-16T03:05:24.316Z,10.00
2023-04-16T03:11:26.697Z,10.00
2023-04-16T03:17:29.544Z,10.00
2023-04-16T03:23:32.198Z,9.90
2023-04-16T03:29:37.481Z,10.00
2023-04-16T03:35:41.349Z,10.00
2023-04-16T03:41:43.612Z,10.00
2023-04-16T03:47:48.959Z,9.90
2023-04-16T03:53:51.446Z,10.00
2023-04-16T03:59:54.815Z,10.20
2023-04-16T04:05:58.439Z,10.30
2023-04-16T04:12:04.641Z,10.40
2023-04-16T04:18:09.181Z,10.40
2023-04-16T04:24:12.254Z,10.60
2023-04-16T04:30:15.048Z,10.60
2023-04-16T04:36:17.883Z,10.80
2023-04-16T04:42:23.786Z,10.90
2023-04-16T04:48:27.956Z,11.10
2023-04-16T04:54:32.446Z,11.20
2023-04-16T05:00:36.550Z,11.20
2023-04-16T05:06:38.756Z,11.30
2023-04-16T05:12:41.164Z,11.40
2023-04-16T05:18:43.493Z,11.70
2023-04-16T05:24:46.214Z,11.80
2023-04-16T05:30:48.577Z,12.10
2023-04-16T05:36:50.912Z,12.30
2023-04-16T05:42:53.347Z,12.60
2023-04-16T05:48:55.900Z,12.90
2023-04-16T05:55:02.081Z,13.50
2023-04-16T06:01:04.775Z,14.50
2023-04-16T06:07:07.574Z,15.50
2023-04-16T06:13:10.091Z,16.10
2023-04-16T06:19:12.600Z,16.10
2023-04-16T06:25:16.869Z,16.20
2023-04-16T06:31:20.369Z,18.00
2023-04-16T06:37:22.712Z,16.70
2023-04-16T06:43:25.114Z,16.50
2023-04-16T06:49:27.501Z,16.70
2023-04-16T06:55:29.712Z,16.70
2023-04-16T07:01:32.012Z,17.90
2023-04-16T07:07:34.224Z,17.60
2023-04-16T07:13:36.515Z,17.70
2023-04-16T07:19:38.914Z,17.50
2023-04-16T07:25:42.505Z,18.60
2023-04-16T07:31:45.772Z,19.40
2023-04-16T07:37:48.006Z,19.60
2023-04-16T07:43:50.208Z,23.30
2023-04-16T07:49:52.943Z,26.00
2023-04-16T07:55:55.860Z,23.90
2023-04-16T08:01:58.220Z,22.30
2023-04-16T08:08:00.711Z,21.80
2023-04-16T08:14:03.154Z,20.20
2023-04-16T08:20:07.220Z,21.20
2023-04-16T08:26:09.924Z,20.70
2023-04-16T08:32:12.349Z,21.40
2023-04-16T08:38:14.778Z,21.80
2023-04-16T08:44:37.135Z,21.30
2023-04-16T08:50:41.266Z,20.80
2023-04-16T08:56:43.596Z,23.70
2023-04-16T09:02:46.123Z,25.80
2023-04-16T09:08:49.773Z,26.80
2023-04-16T09:14:52.396Z,27.60
2023-04-16T09:20:56.754Z,28.40
2023-04-16T09:27:00.379Z,27.10
2023-04-16T09:33:23.295Z,24.70
2023-04-16T09:39:25.964Z,21.20
2023-04-16T09:45:32.443Z,20.50
2023-04-16T09:51:38.983Z,21.70
2023-04-16T09:57:41.653Z,22.50
2023-04-16T10:03:49.853Z,20.00
2023-04-16T10:09:53.569Z,18.60
2023-04-16T10:15:57.696Z,20.10
2023-04-16T10:22:00.286Z,20.00
2023-04-16T10:28:03.606Z,21.30
2023-04-16T10:34:07.507Z,21.70
2023-04-16T10:40:26.423Z,21.00
2023-04-16T10:46:43.360Z,19.90
2023-04-16T10:52:46.338Z,19.00
2023-04-16T10:58:48.750Z,18.00
2023-04-16T11:04:51.576Z,17.90
2023-04-16T11:10:54.846Z,17.40
2023-04-16T11:16:57.377Z,17.10
2023-04-16T11:22:59.568Z,17.30
2023-04-16T11:29:02.242Z,17.80
2023-04-16T11:35:06.274Z,17.80
2023-04-16T11:41:09.558Z,17.40
2023-04-16T11:47:14.323Z,17.50
2023-04-16T11:53:16.725Z,17.50
2023-04-16T11:59:23.874Z,17.00
2023-04-16T12:05:35.175Z,16.40
2023-04-16T12:11:41.525Z,15.80
2023-04-16T12:17:44.013Z,15.20
2023-04-16T12:23:46.665Z,14.80
2023-04-16T12:30:08.313Z,14.10
2023-04-16T12:36:20.715Z,13.70
2023-04-16T12:42:24.403Z,13.60
2023-04-16T12:48:27.312Z,13.30
2023-04-16T12:54:31.562Z,13.20
2023-04-16T13:00:34.076Z,12.80
2023-04-16T13:06:38.248Z,12.60
2023-04-16T13:12:40.972Z,12.30
2023-04-16T13:18:43.450Z,12.10
2023-04-16T13:24:46.647Z,12.20
2023-04-16T13:30:49.493Z,12.30
2023-04-16T13:36:51.953Z,12.50
2023-04-16T13:42:54.252Z,12.90
2023-04-16T13:48:56.810Z,13.20
2023-04-16T13:55:00.225Z,13.20
2023-04-16T14:01:02.822Z,13.40
2023-04-16T14:07:05.185Z,13.60
2023-04-16T14:13:07.579Z,13.90
2023-04-16T14:19:10.226Z,13.60
2023-04-16T14:25:12.992Z,13.50
2023-04-16T14:31:17.585Z,13.80
2023-04-16T14:37:20.008Z,14.00
2023-04-16T14:43:22.312Z,14.20
2023-04-16T14:49:24.659Z,14.00
2023-04-16T14:55:27.026Z,13.70
2023-04-16T15:01:29.390Z,13.60
2023-04-16T15:07:32.223Z,13.50
2023-04-16T15:13:34.685Z,13.40
2023-04-16T15:19:37.263Z,13.30
2023-04-16T15:25:39.356Z,13.30
2023-04-16T15:31:42.164Z,13.40
2023-04-16T15:37:44.388Z,13.40
2023-04-16T15:43:56.352Z,13.20
2023-04-16T15:49:58.645Z,13.10
2023-04-16T15:56:01.475Z,13.00
2023-04-16T16:02:04.207Z,12.90
2023-04-16T16:08:06.752Z,12.90
2023-04-16T16:14:09.504Z,12.90
2023-04-16T16:20:13.580Z,12.90
2023-04-16T16:26:15.967Z,12.80
2023-04-16T16:32:19.568Z,12.80
2023-04-16T16:38:21.944Z,12.80
2023-04-16T16:44:24.593Z,12.80
2023-04-16T16:50:27.415Z,12.70
2023-04-16T16:56:30.012Z,12.60
2023-04-16T17:02:32.581Z,12.70
2023-04-16T17:08:35.252Z,12.80
2023-04-16T17:14:37.652Z,12.80
2023-04-16T17:20:40.188Z,12.90
2023-04-16T17:26:42.593Z,13.00
2023-04-16T17:32:45.196Z,13.10
2023-04-16T17:38:47.452Z,13.10
2023-04-16T17:44:49.686Z,13.10
2023-04-16T17:50:51.891Z,13.20
2023-04-16T17:56:54.381Z,13.20
2023-04-16T18:02:58.186Z,13.20
2023-04-16T18:09:00.754Z,13.20
2023-04-16T18:15:06.074Z,13.20
2023-04-16T18:21:08.448Z,13.10
2023-04-16T18:27:10.652Z,13.10
2023-04-16T18:33:43.560Z,13.10
2023-04-16T18:39:36.901Z,12.90
2023-04-16T18:51:45.291Z,12.60
2023-04-16T18:57:47.747Z,12.50
2023-04-16T19:03:50.279Z,12.40
2023-04-16T19:09:52.674Z,12.30
2023-04-16T19:16:00.186Z,12.30
2023-04-16T19:22:02.829Z,12.40
2023-04-16T19:28:05.318Z,12.40
2023-04-16T19:34:08.042Z,12.40
2023-04-16T19:40:11.358Z,12.40
2023-04-16T19:46:15.883Z,12.40
2023-04-16T19:52:18.529Z,12.40
2023-04-16T19:58:20.806Z,12.50
2023-04-16T20:04:23.286Z,12.50
2023-04-16T20:10:26.918Z,12.50
2023-04-16T20:16:30.508Z,12.50
2023-04-16T20:22:33.351Z,12.50
2023-04-16T20:28:35.619Z,12.40
2023-04-16T20:34:38.351Z,12.40
2023-04-16T20:40:40.825Z,12.40
2023-04-16T20:46:44.603Z,12.40
2023-04-16T20:52:46.961Z,12.30
2023-04-16T20:58:49.238Z,12.30
2023-04-16T21:04:51.810Z,12.30
2023-04-16T21:10:54.366Z,12.30
2023-04-16T21:16:56.789Z,12.20
2023-04-16T21:22:59.479Z,12.10
2023-04-16T21:29:01.627Z,12.10
2023-04-16T21:35:04.171Z,12.20
2023-04-16T21:41:06.685Z,12.10
2023-04-16T21:47:09.166Z,12.10
2023-04-16T21:53:11.381Z,12.10
2023-04-16T21:59:13.662Z,12.10
2023-04-16T22:05:16.088Z,12.00
2023-04-16T22:11:18.319Z,12.00
2023-04-16T22:17:21.511Z,12.00
2023-04-16T22:23:24.337Z,11.90
2023-04-16T22:29:26.754Z,11.90
2023-04-16T22:35:36.663Z,11.90
2023-04-16T22:41:38.890Z,11.90
2023-04-16T22:47:42.004Z,11.90
2023-04-16T22:53:44.434Z,11.80
2023-04-16T22:59:47.421Z,11.90
2023-04-16T23:05:49.951Z,11.80
2023-04-16T23:11:52.316Z,11.80
2023-04-16T23:17:54.630Z,11.80
2023-04-16T23:23:57.475Z,11.80
2023-04-16T23:29:59.711Z,11.70
2023-04-16T23:36:02.393Z,11.60
2023-04-16T23:42:04.645Z,11.60
2023-04-16T23:48:07.246Z,11.60
2023-04-16T23:54:09.382Z,11.60
